Time;durP1;ratioP1;P1;durP2;ratioP2;P2;SDS_P1;SDS_P2;PMS_P1;PMS_P2;Temp;Humidity;BMP_temperature;BMP_pressure;BME280_temperature;BME280_humidity;BME280_pressure;Samples;Min_cycle;Max_cycle;Signal;HPM_P1;HPM_P2
2022/01/27 00:01:44;;;;;;;51.33;27.90;;;3.20;99.90;;;;;;5114776;28;20404;-66
2022/01/27 00:06:39;;;;;;;50.53;27.35;;;3.20;99.90;;;;;;5115114;28;20019;-65
2022/01/27 00:09:15;;;;;;;46.70;27.83;;;3.20;99.90;;;;;;5114107;28;20472;-65
2022/01/27 00:11:44;;;;;;;48.47;27.90;;;3.20;99.90;;;;;;5115033;28;20465;-67
2022/01/27 00:14:11;;;;;;;52.03;28.67;;;3.20;99.90;;;;;;5114339;28;20023;-65
2022/01/27 00:16:41;;;;;;;51.60;28.23;;;3.20;99.90;;;;;;5114776;28;20024;-66
2022/01/27 00:19:09;;;;;;;53.55;29.38;;;3.20;99.90;;;;;;5113938;28;20434;-66
2022/01/27 00:21:34;;;;;;;48.85;29.33;;;3.20;99.90;;;;;;5114845;28;20475;-66
2022/01/27 00:24:00;;;;;;;51.97;28.63;;;3.20;99.90;;;;;;5114014;28;20106;-66
2022/01/27 00:26:26;;;;;;;53.40;28.17;;;3.20;99.90;;;;;;5114588;28;20031;-66
2022/01/27 00:28:52;;;;;;;53.30;29.65;;;3.30;99.90;;;;;;5114683;28;20107;-65
2022/01/27 00:31:19;;;;;;;47.85;27.95;;;3.20;99.90;;;;;;5113773;28;20027;-66
2022/01/27 00:33:46;;;;;;;46.28;27.60;;;3.20;99.90;;;;;;5114618;28;20019;-66
2022/01/27 00:36:12;;;;;;;51.60;28.55;;;3.20;99.90;;;;;;5113999;28;20024;-66
2022/01/27 00:38:38;;;;;;;56.47;29.33;;;3.20;99.90;;;;;;5114473;28;20054;-66
2022/01/27 00:41:04;;;;;;;56.45;28.95;;;3.20;99.90;;;;;;5113807;28;20028;-66
2022/01/27 00:43:31;;;;;;;51.28;28.63;;;3.20;99.90;;;;;;5114297;28;20031;-66
2022/01/27 00:45:57;;;;;;;50.92;28.92;;;3.20;99.90;;;;;;5114267;28;20132;-65
2022/01/27 00:48:23;;;;;;;52.05;28.02;;;3.20;99.90;;;;;;5113591;28;20470;-66
2022/01/27 00:50:54;;;;;;;45.80;26.00;;;3.20;99.90;;;;;;5095861;28;20027;-66
2022/01/27 00:53:43;;;;;;;48.60;27.88;;;3.20;99.90;;;;;;5113597;28;20067;-66
2022/01/27 00:56:23;;;;;;;48.35;26.50;;;3.20;99.90;;;;;;5113080;28;20415;-66
2022/01/27 01:01:18;;;;;;;44.25;25.52;;;3.20;99.90;;;;;;5113382;28;20119;-65
2022/01/27 01:03:47;;;;;;;48.75;26.10;;;3.20;99.90;;;;;;5113707;28;20528;-65
2022/01/27 01:06:25;;;;;;;44.97;26.10;;;3.20;99.90;;;;;;5113241;28;20024;-66
2022/01/27 01:30:52;;;;;;;50.70;28.85;;;3.20;99.90;;;;;;5118412;27;20067;-66
2022/01/27 01:33:25;;;;;;;56.72;29.48;;;3.20;99.90;;;;;;5133343;27;20037;-67
2022/01/27 01:36:01;;;;;;;56.17;30.30;;;3.20;99.90;;;;;;5133860;27;20115;-67
2022/01/27 01:38:29;;;;;;;54.00;29.98;;;3.20;99.90;;;;;;5133357;27;20039;-66
2022/01/27 01:40:56;;;;;;;56.08;31.52;;;3.20;99.90;;;;;;5133699;27;20027;-66
2022/01/27 01:43:22;;;;;;;60.15;31.10;;;3.20;99.90;;;;;;5132907;27;20407;-66
2022/01/27 01:45:48;;;;;;;54.13;29.38;;;3.20;99.90;;;;;;5133796;27;20091;-66
2022/01/27 01:48:16;;;;;;;57.70;31.08;;;3.20;99.90;;;;;;5132830;27;20056;-66
2022/01/27 01:50:43;;;;;;;54.42;29.95;;;3.20;99.90;;;;;;5117322;27;20160;-65
2022/01/27 01:53:09;;;;;;;53.58;28.88;;;3.20;99.90;;;;;;5112350;28;20519;-65
2022/01/27 01:55:35;;;;;;;56.28;29.88;;;3.20;99.90;;;;;;5112925;28;20080;-65
2022/01/27 01:58:01;;;;;;;57.25;30.08;;;3.20;99.90;;;;;;5112585;28;20024;-66
2022/01/27 02:00:28;;;;;;;57.78;30.35;;;3.20;99.90;;;;;;5112197;28;20020;-66
2022/01/27 02:02:54;;;;;;;58.58;30.90;;;3.20;99.90;;;;;;5112805;28;20389;-66
2022/01/27 02:05:28;;;;;;;60.45;30.33;;;3.20;99.90;;;;;;5112165;28;20415;-66
2022/01/27 02:19:19;;;;;;;59.67;30.10;;;3.20;99.90;;;;;;5112029;28;20089;-66
2022/01/27 02:21:50;;;;;;;58.05;30.23;;;3.20;99.90;;;;;;5112940;28;20114;-66
2022/01/27 02:24:16;;;;;;;;;;;3.20;99.90;;;;;;5112457;28;20066;-67
2022/01/27 02:26:44;;;;;;;55.10;28.23;;;3.20;99.90;;;;;;5112426;28;19927;-67
2022/01/27 02:29:10;;;;;;;56.15;30.75;;;3.20;99.90;;;;;;5112078;28;20028;-66
2022/01/27 02:31:36;;;;;;;61.42;29.98;;;3.20;99.90;;;;;;5112989;28;20027;-66
2022/01/27 02:34:04;;;;;;;63.30;31.20;;;3.20;99.90;;;;;;5112378;28;20483;-66
2022/01/27 02:36:31;;;;;;;54.45;28.98;;;3.20;99.90;;;;;;5111991;28;20020;-67
2022/01/27 02:38:56;;;;;;;61.33;31.63;;;3.20;99.90;;;;;;5112478;28;20031;-67
2022/01/27 02:41:25;;;;;;;55.53;30.00;;;3.20;99.90;;;;;;5111969;28;20027;-66
2022/01/27 02:43:51;;;;;;;54.58;29.27;;;3.20;99.90;;;;;;5112768;28;20027;-66
2022/01/27 02:46:24;;;;;;;57.97;30.88;;;3.20;99.90;;;;;;5111949;28;20027;-66
2022/01/27 02:48:50;;;;;;;54.45;29.80;;;3.20;99.90;;;;;;5112525;28;20495;-66
2022/01/27 02:51:16;;;;;;;59.53;31.38;;;3.20;99.90;;;;;;5111836;28;20094;-66
2022/01/27 02:53:41;;;;;;;57.13;29.75;;;3.20;99.90;;;;;;5112663;28;20076;-66
2022/01/27 02:56:07;;;;;;;54.20;29.52;;;3.20;99.90;;;;;;5112112;28;20054;-65
2022/01/27 02:58:33;;;;;;;60.53;31.38;;;3.20;99.90;;;;;;5112293;28;20118;-66
2022/01/27 03:00:59;;;;;;;57.28;29.73;;;3.20;99.90;;;;;;5112441;28;20096;-66
2022/01/27 03:03:25;;;;;;;60.47;32.40;;;3.10;99.90;;;;;;5111802;28;20344;-67
2022/01/27 03:05:50;;;;;;;58.78;30.67;;;3.20;99.90;;;;;;5112373;28;20032;-67
2022/01/27 03:08:16;;;;;;;56.30;30.00;;;3.20;99.90;;;;;;5111429;28;20035;-67
2022/01/27 03:10:57;;;;;;;55.10;30.05;;;3.20;99.90;;;;;;5112409;28;20038;-67
2022/01/27 03:13:22;;;;;;;58.90;30.60;;;3.20;99.90;;;;;;5112114;28;20023;-67
2022/01/27 03:15:48;;;;;;;59.35;30.17;;;3.20;99.90;;;;;;5112247;28;20028;-66
2022/01/27 03:18:14;;;;;;;59.90;30.25;;;3.20;99.90;;;;;;5093335;28;20039;-66
2022/01/27 03:20:39;;;;;;;51.17;28.10;;;3.20;99.90;;;;;;5115529;28;20051;-66
2022/01/27 03:23:07;;;;;;;55.33;30.90;;;3.20;99.90;;;;;;5116165;28;20027;-66
2022/01/27 03:25:32;;;;;;;57.33;30.95;;;3.20;99.90;;;;;;5125879;27;20027;-67
2022/01/27 03:27:59;;;;;;;55.45;30.55;;;3.20;99.90;;;;;;5136062;27;20088;-66
2022/01/27 03:30:25;;;;;;;53.40;28.50;;;3.20;99.90;;;;;;5135461;27;20111;-66
2022/01/27 03:32:51;;;;;;;52.67;28.98;;;3.20;99.90;;;;;;5136017;27;20503;-66
2022/01/27 03:35:16;;;;;;;55.95;30.40;;;3.20;99.90;;;;;;5132443;27;20364;-66
2022/01/27 03:37:42;;;;;;;56.53;30.02;;;3.20;99.90;;;;;;5135371;27;20058;-66
2022/01/27 03:40:09;;;;;;;58.28;30.38;;;3.20;99.90;;;;;;5135667;27;20023;-66
2022/01/27 03:42:42;;;;;;;50.90;29.20;;;3.20;99.90;;;;;;5128718;27;20023;-66
2022/01/27 03:45:08;;;;;;;52.72;29.02;;;3.20;99.90;;;;;;5115727;28;20023;-66
2022/01/27 03:47:34;;;;;;;47.42;27.20;;;3.20;99.90;;;;;;5115043;28;20468;-66
2022/01/27 03:50:00;;;;;;;56.58;30.67;;;3.20;99.90;;;;;;5115226;28;20043;-66
2022/01/27 03:52:25;;;;;;;53.28;28.98;;;3.20;99.90;;;;;;5114914;28;20127;-66
2022/01/27 03:54:51;;;;;;;54.47;28.25;;;3.20;99.90;;;;;;5115303;28;20500;-66
2022/01/27 03:57:16;;;;;;;55.28;29.35;;;3.20;99.90;;;;;;5114814;28;20023;-65
2022/01/27 03:59:42;;;;;;;55.83;29.95;;;3.30;99.90;;;;;;5114988;28;20035;-66
2022/01/27 04:02:08;;;;;;;51.47;29.15;;;3.30;99.90;;;;;;5115363;28;20119;-66
2022/01/27 04:04:34;;;;;;;53.28;30.15;;;3.20;99.90;;;;;;5114668;28;20024;-66
2022/01/27 04:07:02;;;;;;;50.03;27.58;;;3.20;99.90;;;;;;5115267;28;20030;-66
2022/01/27 04:09:28;;;;;;;57.03;28.75;;;3.20;99.90;;;;;;5114461;28;20042;-66
2022/01/27 04:11:54;;;;;;;52.25;28.05;;;3.20;99.90;;;;;;5114950;28;20375;-66
2022/01/27 04:14:19;;;;;;;52.55;28.33;;;3.20;99.90;;;;;;5114473;28;20029;-66
2022/01/27 04:16:45;;;;;;;50.28;27.70;;;3.20;99.90;;;;;;5131133;27;20057;-66
2022/01/27 04:19:11;;;;;;;55.42;29.95;;;3.20;99.90;;;;;;5134131;27;20027;-66
2022/01/27 04:21:37;;;;;;;49.88;28.30;;;3.20;99.90;;;;;;5133636;27;20023;-66
2022/01/27 04:24:04;;;;;;;50.58;28.77;;;3.20;99.90;;;;;;5135081;27;20023;-66
2022/01/27 04:26:39;;;;;;;48.25;27.67;;;3.20;99.90;;;;;;5134336;27;20464;-66
2022/01/27 04:29:05;;;;;;;51.15;27.85;;;3.20;99.90;;;;;;5132622;27;20037;-66
2022/01/27 04:31:31;;;;;;;48.58;26.88;;;3.30;99.90;;;;;;5133538;27;20106;-66
2022/01/27 04:33:57;;;;;;;50.78;28.48;;;3.30;99.90;;;;;;5135121;27;20422;-67
2022/01/27 04:36:29;;;;;;;48.03;28.95;;;3.30;99.90;;;;;;5116388;27;20015;-67
2022/01/27 04:41:50;;;;;;;51.03;28.00;;;3.20;99.90;;;;;;5134599;27;20392;-65
2022/01/27 04:46:47;;;;;;;50.78;27.95;;;3.30;99.90;;;;;;5134428;27;20491;-65
2022/01/27 04:49:13;;;;;;;52.25;28.20;;;3.30;99.70;;;;;;5129179;27;20468;-66
2022/01/27 04:51:39;;;;;;;53.15;29.38;;;3.30;99.50;;;;;;5133395;27;20108;-67
2022/01/27 04:54:15;;;;;;;50.08;29.00;;;3.20;99.50;;;;;;5134497;27;20030;-66
2022/01/27 04:56:41;;;;;;;53.10;29.52;;;3.20;99.50;;;;;;5133317;27;20062;-66
2022/01/27 05:01:58;;;;;;;54.60;30.23;;;3.20;99.70;;;;;;5134728;27;20066;-66
2022/01/27 05:04:29;;;;;;;54.78;31.13;;;3.20;99.90;;;;;;5133391;27;20027;-66
2022/01/27 05:06:55;;;;;;;54.78;30.65;;;3.20;99.90;;;;;;5134770;27;20031;-66
2022/01/27 05:09:22;;;;;;;51.05;29.38;;;3.10;99.90;;;;;;5133729;27;20023;-65
2022/01/27 05:11:58;;;;;;;51.03;28.48;;;3.10;99.90;;;;;;5134489;27;20023;-66
2022/01/27 05:14:25;;;;;;;50.78;27.15;;;3.10;99.80;;;;;;5133902;27;20019;-66
2022/01/27 05:16:53;;;;;;;49.05;28.55;;;3.00;99.70;;;;;;5134254;27;20099;-66
2022/01/27 05:19:19;;;;;;;49.58;27.13;;;3.00;99.80;;;;;;5133376;27;20031;-66
2022/01/27 05:21:45;;;;;;;52.33;28.67;;;3.00;99.90;;;;;;5133341;27;20047;-66
2022/01/27 05:24:11;;;;;;;56.30;30.27;;;3.00;99.90;;;;;;5134185;27;20051;-66
2022/01/27 05:26:38;;;;;;;48.28;28.00;;;2.90;99.90;;;;;;5133479;27;20114;-66
2022/01/27 05:29:05;;;;;;;54.63;29.10;;;2.90;99.90;;;;;;5134045;27;20038;-66
2022/01/27 05:31:31;;;;;;;52.80;29.27;;;2.90;99.90;;;;;;5132862;27;20028;-66
2022/01/27 05:33:57;;;;;;;52.97;30.00;;;2.90;99.90;;;;;;5112278;27;20077;-66
2022/01/27 05:36:23;;;;;;;55.25;31.23;;;2.90;99.90;;;;;;5112009;27;20020;-66
2022/01/27 05:38:48;;;;;;;55.22;30.00;;;2.90;99.90;;;;;;5113616;27;20031;-66
2022/01/27 05:41:15;;;;;;;56.20;31.92;;;2.90;99.90;;;;;;5113620;28;20322;-66
2022/01/27 05:43:41;;;;;;;54.85;29.73;;;2.90;99.90;;;;;;5112537;28;20107;-66
2022/01/27 05:46:07;;;;;;;59.53;31.65;;;2.90;99.90;;;;;;5113389;27;20357;-67
2022/01/27 05:48:33;;;;;;;58.25;31.90;;;2.90;99.90;;;;;;5112242;28;20053;-66
2022/01/27 05:50:59;;;;;;;58.05;32.25;;;2.90;99.90;;;;;;5113103;28;20071;-65
2022/01/27 05:53:25;;;;;;;59.15;33.13;;;2.90;99.90;;;;;;5122954;27;20048;-66
2022/01/27 05:55:51;;;;;;;58.03;30.83;;;2.90;99.90;;;;;;5133367;27;20062;-66
2022/01/27 05:58:17;;;;;;;61.25;32.15;;;2.90;99.90;;;;;;5133344;27;20532;-66
2022/01/27 06:00:43;;;;;;;60.72;31.90;;;2.90;99.90;;;;;;5133446;27;20034;-66
2022/01/27 06:03:09;;;;;;;59.85;33.22;;;2.90;99.90;;;;;;5133345;27;20023;-66
2022/01/27 06:05:34;;;;;;;60.72;33.20;;;2.90;99.90;;;;;;5125855;27;20024;-66
2022/01/27 06:08:00;;;;;;;59.47;33.45;;;2.90;99.90;;;;;;5112070;28;20027;-66
2022/01/27 06:10:26;;;;;;;63.38;35.05;;;2.90;99.90;;;;;;5111704;28;20452;-66
2022/01/27 06:12:58;;;;;;;64.75;34.78;;;3.00;99.90;;;;;;5111713;28;20034;-66
2022/01/27 06:15:25;;;;;;;61.53;34.60;;;2.90;99.90;;;;;;5111271;28;20020;-66
2022/01/27 06:17:51;;;;;;;64.18;34.63;;;2.90;99.90;;;;;;5112360;28;20085;-66
2022/01/27 06:20:17;;;;;;;67.10;33.97;;;3.00;99.90;;;;;;5112387;28;20478;-67
2022/01/27 06:22:44;;;;;;;65.22;34.50;;;2.90;99.90;;;;;;5112147;28;20030;-67
2022/01/27 06:25:10;;;;;;;65.32;33.83;;;2.90;99.90;;;;;;5112761;28;20023;-66
2022/01/27 06:27:36;;;;;;;64.38;35.60;;;3.00;99.90;;;;;;5111792;28;20491;-66
2022/01/27 06:30:05;;;;;;;67.90;35.28;;;3.00;99.90;;;;;;5112807;28;20028;-66
2022/01/27 06:32:31;;;;;;;68.63;34.72;;;2.90;99.90;;;;;;5111601;28;20096;-66
2022/01/27 06:34:57;;;;;;;65.97;33.28;;;2.90;99.90;;;;;;5112227;28;20024;-66
2022/01/27 06:37:43;;;;;;;67.07;35.70;;;2.90;99.90;;;;;;5111965;28;20026;-65
2022/01/27 06:40:14;;;;;;;68.03;34.72;;;2.90;99.90;;;;;;5112540;28;20077;-66
2022/01/27 06:42:40;;;;;;;66.90;34.38;;;2.90;99.90;;;;;;5111897;28;20032;-66
2022/01/27 06:45:06;;;;;;;67.47;34.75;;;2.90;99.90;;;;;;5112476;28;20038;-65
2022/01/27 06:47:32;;;;;;;64.13;35.40;;;2.90;99.90;;;;;;5111547;28;20024;-65
2022/01/27 06:49:58;;;;;;;66.00;35.15;;;2.90;99.90;;;;;;5112353;28;20038;-65
2022/01/27 06:52:27;;;;;;;64.95;34.88;;;2.90;99.90;;;;;;5111841;28;20043;-66
2022/01/27 06:54:55;;;;;;;65.82;34.88;;;2.90;99.90;;;;;;5114266;28;20074;-66
2022/01/27 06:57:21;;;;;;;75.97;35.38;;;2.90;99.90;;;;;;5116503;28;20449;-66
2022/01/27 06:59:46;;;;;;;68.78;35.95;;;2.90;99.90;;;;;;5116234;28;20035;-66
2022/01/27 07:02:12;;;;;;;66.68;34.70;;;2.90;99.90;;;;;;5116468;28;20418;-66
2022/01/27 07:04:37;;;;;;;73.00;35.80;;;2.90;99.90;;;;;;5115483;28;20093;-65
2022/01/27 07:07:04;;;;;;;69.88;36.67;;;2.90;99.90;;;;;;5116303;28;20498;-65
2022/01/27 07:09:29;;;;;;;69.78;38.22;;;2.90;99.90;;;;;;5115332;28;20468;-66
2022/01/27 07:11:55;;;;;;;71.45;36.33;;;2.90;99.90;;;;;;5116388;28;20028;-66
2022/01/27 07:14:21;;;;;;;70.55;36.88;;;2.90;99.90;;;;;;5116130;28;20373;-67
2022/01/27 07:16:47;;;;;;;69.85;36.33;;;2.90;99.90;;;;;;5115569;28;20023;-67
2022/01/27 07:19:12;;;;;;;68.53;36.88;;;2.90;99.90;;;;;;5097858;28;20110;-66
2022/01/27 07:21:38;;;;;;;70.65;36.92;;;2.90;99.90;;;;;;5115399;28;20020;-66
2022/01/27 07:24:04;;;;;;;67.55;37.25;;;3.00;99.90;;;;;;5116182;28;20051;-66
2022/01/27 07:26:48;;;;;;;65.65;35.50;;;3.00;99.90;;;;;;5115213;28;20031;-66
2022/01/27 07:29:14;;;;;;;68.07;35.28;;;3.00;99.90;;;;;;5116044;28;20034;-66
2022/01/27 07:31:40;;;;;;;68.95;36.83;;;3.10;99.90;;;;;;5115333;28;20060;-66
2022/01/27 07:34:06;;;;;;;62.03;35.58;;;3.10;99.90;;;;;;5115913;28;20369;-66
2022/01/27 07:36:31;;;;;;;66.22;36.42;;;3.10;99.90;;;;;;5115160;28;20039;-66
2022/01/27 07:38:58;;;;;;;64.18;36.00;;;3.20;99.90;;;;;;5115588;28;20035;-66
2022/01/27 07:41:24;;;;;;;70.05;37.03;;;3.20;99.90;;;;;;5129340;27;20101;-66
2022/01/27 07:43:50;;;;;;;68.03;35.35;;;3.30;99.90;;;;;;5135958;27;20023;-66
2022/01/27 07:46:16;;;;;;;65.75;35.33;;;3.30;99.70;;;;;;5136171;27;20523;-66
2022/01/27 07:48:42;;;;;;;64.50;36.97;;;3.40;99.20;;;;;;5135317;27;20034;-66
2022/01/27 07:51:09;;;;;;;61.92;34.50;;;3.40;98.70;;;;;;5135939;27;20023;-66
2022/01/27 07:53:36;;;;;;;66.15;34.72;;;3.50;98.00;;;;;;5135352;27;20028;-66
2022/01/27 07:56:04;;;;;;;65.63;35.42;;;3.60;97.70;;;;;;5132405;27;20444;-66
2022/01/27 07:58:31;;;;;;;63.13;34.75;;;3.70;97.60;;;;;;5114566;28;20063;-66
2022/01/27 08:00:56;;;;;;;60.38;33.42;;;3.80;97.40;;;;;;5115132;28;20469;-66
2022/01/27 08:03:22;;;;;;;61.88;32.00;;;3.90;96.80;;;;;;5115040;28;20037;-66
2022/01/27 08:05:48;;;;;;;60.97;34.25;;;4.00;95.30;;;;;;5114556;28;20073;-66
2022/01/27 08:08:14;;;;;;;56.65;31.77;;;4.20;94.50;;;;;;5115281;28;20028;-66
2022/01/27 08:10:39;;;;;;;56.95;31.73;;;4.30;93.60;;;;;;5114504;28;20023;-65
2022/01/27 08:13:06;;;;;;;52.20;30.08;;;4.40;93.10;;;;;;5114862;28;20049;-66
2022/01/27 08:15:33;;;;;;;49.25;29.52;;;4.40;91.80;;;;;;5114180;28;20046;-66
2022/01/27 08:17:59;;;;;;;53.95;30.40;;;4.50;91.20;;;;;;5114877;28;20030;-66
2022/01/27 08:20:25;;;;;;;52.33;29.80;;;4.60;90.90;;;;;;5114932;28;20108;-66
2022/01/27 08:22:52;;;;;;;52.95;28.00;;;4.60;90.40;;;;;;5114433;28;20102;-66
2022/01/27 08:25:23;;;;;;;50.38;28.80;;;4.70;89.40;;;;;;5114680;28;20034;-66
2022/01/27 08:27:52;;;;;;;47.75;29.15;;;4.70;89.00;;;;;;5114267;28;20039;-66
2022/01/27 08:30:19;;;;;;;49.45;28.58;;;4.80;88.40;;;;;;5114442;28;20036;-66
2022/01/27 08:32:48;;;;;;;48.63;28.80;;;4.80;87.90;;;;;;5114075;28;20024;-66
2022/01/27 08:35:19;;;;;;;49.88;29.67;;;4.80;87.40;;;;;;5114577;28;20043;-67
2022/01/27 08:37:45;;;;;;;46.80;29.43;;;4.90;87.40;;;;;;5114124;28;20396;-66
2022/01/27 08:40:14;;;;;;;50.47;28.80;;;4.90;87.30;;;;;;5114461;28;20027;-67
2022/01/27 08:42:40;;;;;;;54.95;28.27;;;5.00;86.80;;;;;;5113847;28;20035;-66
2022/01/27 08:45:17;;;;;;;45.45;27.40;;;5.00;85.80;;;;;;5114781;28;20031;-67
2022/01/27 08:47:45;;;;;;;48.20;27.35;;;5.10;85.20;;;;;;5113840;28;20028;-67
2022/01/27 08:50:12;;;;;;;45.25;27.17;;;5.10;84.50;;;;;;5114396;28;20035;-65
2022/01/27 08:52:39;;;;;;;43.72;25.55;;;5.20;83.60;;;;;;5113647;28;20020;-66
2022/01/27 08:55:07;;;;;;;48.42;25.42;;;5.30;82.60;;;;;;5114106;28;20054;-67
2022/01/27 08:57:33;;;;;;;43.60;25.65;;;5.30;81.60;;;;;;5113625;28;20354;-66
2022/01/27 09:00:01;;;;;;;46.30;26.17;;;5.30;80.90;;;;;;5096102;28;20052;-66
2022/01/27 09:02:27;;;;;;;42.08;25.98;;;5.40;80.70;;;;;;5114069;28;20027;-67
2022/01/27 09:04:53;;;;;;;40.33;24.38;;;5.40;80.50;;;;;;5113543;28;20353;-66
2022/01/27 09:07:19;;;;;;;43.53;25.50;;;5.50;79.10;;;;;;5113633;28;20483;-66
2022/01/27 09:09:45;;;;;;;40.53;23.95;;;5.60;78.80;;;;;;5113334;28;20019;-66
2022/01/27 09:12:13;;;;;;;38.17;23.13;;;5.60;77.40;;;;;;5113899;28;20024;-66
2022/01/27 09:14:41;;;;;;;38.97;23.02;;;5.70;76.50;;;;;;5112977;28;20023;-66
2022/01/27 09:17:11;;;;;;;38.15;22.60;;;5.80;75.90;;;;;;5112943;28;20035;-66
2022/01/27 09:19:40;;;;;;;36.67;23.08;;;5.80;75.70;;;;;;5113048;28;20066;-66
2022/01/27 09:22:09;;;;;;;39.30;23.88;;;5.90;75.90;;;;;;5113542;28;20441;-66
2022/01/27 09:24:41;;;;;;;34.83;21.23;;;5.90;75.40;;;;;;5112998;28;20020;-65
2022/01/27 09:27:07;;;;;;;37.72;19.67;;;5.90;74.60;;;;;;5113559;28;20024;-66
2022/01/27 09:29:34;;;;;;;31.00;18.60;;;6.00;72.20;;;;;;5112904;28;20106;-65
2022/01/27 09:32:02;;;;;;;31.10;18.70;;;6.10;70.90;;;;;;5113465;28;20068;-66
2022/01/27 09:34:28;;;;;;;31.30;18.90;;;6.10;70.20;;;;;;5113346;28;20099;-66
2022/01/27 09:36:54;;;;;;;30.50;18.30;;;6.20;69.80;;;;;;5112718;28;20112;-66
2022/01/27 09:39:21;;;;;;;27.05;17.73;;;6.30;69.40;;;;;;5113094;28;20043;-66
2022/01/27 09:41:52;;;;;;;29.63;18.00;;;6.40;67.40;;;;;;5112541;28;20047;-66
2022/01/27 09:44:20;;;;;;;35.67;17.48;;;6.50;66.60;;;;;;5113349;28;20019;-66
2022/01/27 09:46:47;;;;;;;26.98;17.75;;;6.70;66.00;;;;;;5117479;27;20088;-66
2022/01/27 09:49:17;;;;;;;29.20;17.92;;;6.80;65.40;;;;;;5133671;27;20057;-66
2022/01/27 09:51:45;;;;;;;28.73;16.83;;;7.00;65.60;;;;;;5133077;27;20028;-66
2022/01/27 09:54:13;;;;;;;24.55;17.23;;;7.10;64.90;;;;;;5116378;27;20027;-66
2022/01/27 09:56:40;;;;;;;30.35;16.73;;;7.20;64.60;;;;;;5094055;28;20420;-66
2022/01/27 09:59:07;;;;;;;25.40;16.42;;;7.30;62.00;;;;;;5094556;28;20148;-65
2022/01/27 10:01:34;;;;;;;27.15;16.45;;;7.40;61.30;;;;;;5112894;28;20034;-66
2022/01/27 10:04:02;;;;;;;28.40;16.48;;;7.50;60.90;;;;;;5112622;28;20028;-66
2022/01/27 10:06:31;;;;;;;31.70;17.23;;;7.60;60.80;;;;;;5112681;28;20056;-66
2022/01/27 10:09:20;;;;;;;31.25;16.30;;;7.60;60.60;;;;;;5112078;28;20170;-66
2022/01/27 10:11:48;;;;;;;22.35;15.27;;;7.70;59.10;;;;;;5112014;28;20080;-66
2022/01/27 10:14:19;;;;;;;22.58;14.40;;;7.80;58.70;;;;;;5112122;28;20545;-66
2022/01/27 10:16:46;;;;;;;24.30;15.55;;;7.80;58.30;;;;;;5111811;28;20077;-66
2022/01/27 10:19:13;;;;;;;24.33;15.65;;;7.90;58.00;;;;;;5112517;28;20028;-64
2022/01/27 10:21:39;;;;;;;23.33;14.20;;;8.00;58.00;;;;;;5112061;28;20099;-66
2022/01/27 10:24:26;;;;;;;22.67;13.52;;;8.10;57.10;;;;;;5112640;28;20111;-66
2022/01/27 10:28:10;;;;;;;24.95;13.75;;;8.10;56.40;;;;;;5112007;28;20051;-67
2022/01/27 10:30:51;;;;;;;20.10;12.17;;;8.20;55.70;;;;;;5093132;28;20032;-66
2022/01/27 10:33:02;;;;;;;22.58;13.68;;;8.30;55.30;;;;;;5100889;28;20461;-66
2022/01/27 10:35:28;;;;;;;20.63;12.07;;;8.30;54.60;;;;;;5112614;28;20031;-65
2022/01/27 10:38:02;;;;;;;25.08;12.93;;;8.30;54.50;;;;;;5111767;28;20027;-65
2022/01/27 10:40:43;;;;;;;19.25;12.10;;;8.30;54.30;;;;;;5112059;28;20506;-66
2022/01/27 10:43:15;;;;;;;20.35;13.27;;;8.30;54.50;;;;;;5112654;28;20095;-66
2022/01/27 10:46:05;;;;;;;19.83;12.68;;;8.40;54.20;;;;;;5111828;28;20143;-66
2022/01/27 10:48:34;;;;;;;19.15;12.80;;;8.50;54.10;;;;;;5112437;28;20027;-67
2022/01/27 10:53:54;;;;;;;23.45;12.88;;;8.50;52.90;;;;;;5112248;28;20519;-66
2022/01/27 10:56:26;;;;;;;19.35;12.43;;;8.60;52.30;;;;;;5112441;28;20047;-66
2022/01/27 10:58:53;;;;;;;19.95;12.23;;;8.60;53.10;;;;;;5111732;28;20035;-66
2022/01/27 11:01:28;;;;;;;20.02;11.98;;;8.60;53.00;;;;;;5112177;28;20031;-66
2022/01/27 11:03:56;;;;;;;20.10;13.00;;;8.70;52.50;;;;;;5111619;28;20027;-67
2022/01/27 11:06:25;;;;;;;21.17;13.00;;;8.70;52.50;;;;;;5111855;28;20023;-66
2022/01/27 11:08:54;;;;;;;17.83;12.05;;;8.70;52.40;;;;;;5111411;28;20035;-67
2022/01/27 11:11:22;;;;;;;19.52;11.43;;;8.80;52.40;;;;;;5111954;28;20035;-67
2022/01/27 11:13:49;;;;;;;16.65;11.07;;;8.80;51.80;;;;;;5111386;28;20030;-67
2022/01/27 11:16:17;;;;;;;18.13;11.95;;;8.80;51.10;;;;;;5112019;28;20373;-66
2022/01/27 11:18:45;;;;;;;21.65;12.20;;;8.70;51.00;;;;;;5111329;28;20380;-66
2022/01/27 11:21:24;;;;;;;23.80;12.20;;;8.70;51.40;;;;;;5111860;28;20024;-67
2022/01/27 11:24:15;;;;;;;19.77;12.60;;;8.80;51.60;;;;;;5111461;28;20034;-67
2022/01/27 11:26:43;;;;;;;21.20;13.88;;;8.90;52.50;;;;;;5112145;28;20110;-67
2022/01/27 11:29:12;;;;;;;24.05;13.80;;;8.90;52.00;;;;;;5112320;28;20077;-66
2022/01/27 11:32:11;;;;;;;22.63;14.50;;;8.90;52.80;;;;;;5111965;28;20522;-67
2022/01/27 11:34:47;;;;;;;26.27;14.73;;;8.90;53.00;;;;;;5111934;28;20034;-67
2022/01/27 11:37:18;;;;;;;22.25;13.70;;;9.00;52.70;;;;;;5111997;28;20173;-67
2022/01/27 11:39:48;;;;;;;19.38;13.23;;;9.00;51.40;;;;;;5111217;28;20035;-66
2022/01/27 11:42:14;;;;;;;21.48;13.73;;;9.00;51.30;;;;;;5115808;28;20047;-66
2022/01/27 11:44:43;;;;;;;22.75;13.98;;;9.00;51.70;;;;;;5115544;28;20077;-66
2022/01/27 11:47:13;;;;;;;17.25;12.23;;;8.90;52.00;;;;;;5115518;28;20030;-67
2022/01/27 11:49:54;;;;;;;17.77;11.57;;;9.00;51.40;;;;;;5116064;27;20028;-66
2022/01/27 11:52:27;;;;;;;18.88;12.80;;;9.00;51.00;;;;;;5134923;27;20365;-66
2022/01/27 11:54:55;;;;;;;19.15;11.85;;;9.00;51.00;;;;;;5135116;27;20043;-67
2022/01/27 11:57:41;;;;;;;18.35;11.07;;;9.00;51.20;;;;;;5135940;27;20348;-67
2022/01/27 12:00:13;;;;;;;19.52;12.07;;;9.00;50.70;;;;;;5119049;27;20027;-66
2022/01/27 12:03:00;;;;;;;18.20;11.82;;;9.00;50.20;;;;;;5115357;28;20023;-67
2022/01/27 12:05:31;;;;;;;16.98;11.85;;;9.10;49.70;;;;;;5115388;28;20478;-66
2022/01/27 12:08:12;;;;;;;17.42;10.43;;;9.10;50.20;;;;;;5114567;28;20103;-67
2022/01/27 12:10:48;;;;;;;16.92;10.77;;;9.10;49.80;;;;;;5114733;28;20028;-66
2022/01/27 12:13:43;;;;;;;16.85;10.35;;;9.20;49.30;;;;;;5115158;28;20058;-66
2022/01/27 12:16:56;;;;;;;15.30;10.00;;;9.20;48.70;;;;;;5114262;28;20024;-66
2022/01/27 12:19:03;;;;;;;13.85;10.02;;;9.20;48.60;;;;;;5100358;28;20380;-68
2022/01/27 12:21:31;;;;;;;16.40;10.13;;;9.20;47.90;;;;;;5114931;28;20121;-67
2022/01/27 12:24:13;;;;;;;17.08;9.95;;;9.30;48.20;;;;;;5114260;28;20024;-66
2022/01/27 12:27:03;;;;;;;15.02;9.00;;;9.30;47.70;;;;;;5114713;28;20031;-67
2022/01/27 12:29:38;;;;;;;16.85;9.52;;;9.30;47.00;;;;;;5114783;28;20118;-66
2022/01/27 12:32:05;;;;;;;12.75;8.13;;;9.30;46.60;;;;;;5096831;28;20023;-66
2022/01/27 12:34:32;;;;;;;13.88;7.85;;;9.40;45.60;;;;;;5114768;28;20038;-67
2022/01/27 12:37:07;;;;;;;15.77;8.05;;;9.30;46.30;;;;;;5114053;28;20102;-67
2022/01/27 12:39:56;;;;;;;11.68;7.45;;;9.30;45.50;;;;;;5114695;28;20097;-66
2022/01/27 12:42:27;;;;;;;15.77;8.77;;;9.30;45.10;;;;;;5114428;28;20019;-66
2022/01/27 12:44:58;;;;;;;12.68;8.63;;;9.40;45.70;;;;;;5114018;28;20049;-66
2022/01/27 12:47:26;;;;;;;11.05;8.05;;;9.40;45.70;;;;;;5114705;28;20019;-65
2022/01/27 12:50:03;;;;;;;11.68;7.75;;;9.40;45.40;;;;;;5114139;28;20526;-66
2022/01/27 12:52:33;;;;;;;16.90;8.80;;;9.40;45.30;;;;;;5113472;28;20107;-66
2022/01/27 12:54:59;;;;;;;20.15;7.60;;;9.50;45.50;;;;;;5113656;28;20044;-66
2022/01/27 12:57:30;;;;;;;10.88;7.57;;;9.50;44.50;;;;;;5114244;28;20052;-66
2022/01/27 12:59:57;;;;;;;22.70;8.68;;;9.50;44.80;;;;;;5113145;28;20357;-66
2022/01/27 13:02:24;;;;;;;14.27;8.35;;;9.50;44.80;;;;;;5114227;28;20040;-67
2022/01/27 13:04:53;;;;;;;12.73;8.07;;;9.50;44.60;;;;;;5113561;28;20031;-67
2022/01/27 13:07:20;;;;;;;12.18;7.97;;;9.50;44.70;;;;;;5114083;28;20019;-66
2022/01/27 13:09:57;;;;;;;11.90;7.88;;;9.50;45.00;;;;;;5113877;28;20032;-67
2022/01/27 13:12:25;;;;;;;16.02;7.93;;;9.60;44.90;;;;;;5114074;28;20060;-65
2022/01/27 13:15:05;;;;;;;12.27;7.50;;;9.50;44.50;;;;;;5113381;28;20072;-66
2022/01/27 13:17:36;;;;;;;15.52;7.50;;;9.50;44.10;;;;;;5113776;28;20036;-66
2022/01/27 13:20:13;;;;;;;14.23;7.32;;;9.50;44.40;;;;;;5113094;28;20088;-66
2022/01/27 13:22:51;;;;;;;9.75;7.32;;;9.60;44.70;;;;;;5113706;28;20117;-66
2022/01/27 13:25:18;;;;;;;11.68;8.00;;;9.60;44.80;;;;;;5113588;28;20024;-67
2022/01/27 13:27:44;;;;;;;15.15;8.25;;;9.60;44.60;;;;;;5095707;28;20038;-67
2022/01/27 13:30:11;;;;;;;13.60;8.88;;;9.60;45.60;;;;;;5112935;28;20245;-67
2022/01/27 13:32:38;;;;;;;11.68;7.38;;;9.60;45.80;;;;;;5113410;28;20031;-67
2022/01/27 13:35:04;;;;;;;13.07;8.23;;;9.60;45.30;;;;;;5112471;28;20468;-66
2022/01/27 13:37:32;;;;;;;16.02;8.73;;;9.60;45.20;;;;;;5113236;28;20031;-66